Time;durP1;ratioP1;P1;durP2;ratioP2;P2;SDS_P1;SDS_P2;PMS_P1;PMS_P2;Temp;Humidity;BMP_temperature;BMP_pressure;BME280_temperature;BME280_humidity;BME280_pressure;Samples;Min_cycle;Max_cycle;Signal;HPM_P1;HPM_P2
2022/02/10 00:22:30;;;;;;;19.45;7.90;;;;;;;5.69;96.03;101900.31;5024437;28;20364;-76
2022/02/10 00:35:49;;;;;;;25.85;10.20;;;;;;;5.49;95.93;101886.09;5021836;28;20045;-76
2022/02/10 00:38:17;;;;;;;24.58;9.00;;;;;;;5.46;96.47;101874.28;5004545;28;20417;-76
2022/02/10 00:40:42;;;;;;;22.02;9.00;;;;;;;5.44;96.28;101873.56;4997159;28;20041;-75
2022/02/10 00:43:08;;;;;;;26.10;8.27;;;;;;;5.41;96.20;101878.06;5003221;28;20483;-76
2022/02/10 00:45:34;;;;;;;19.83;8.27;;;;;;;5.38;96.29;101870.53;4999491;28;20539;-75
2022/02/10 00:48:04;;;;;;;23.00;8.48;;;;;;;5.36;96.53;101864.66;5021432;28;20045;-76
2022/02/10 00:50:32;;;;;;;26.45;8.23;;;;;;;5.32;95.92;101868.34;5000568;28;20036;-75
2022/02/10 00:53:03;;;;;;;21.92;8.82;;;;;;;5.24;95.92;101866.25;5020539;28;20366;-75
2022/02/10 00:55:31;;;;;;;23.92;8.77;;;;;;;5.20;96.37;101865.59;5002876;28;20029;-75
2022/02/10 00:57:58;;;;;;;23.70;8.68;;;;;;;5.18;96.11;101870.03;5021933;28;20033;-76
2022/02/10 01:02:12;;;;;;;24.83;8.55;;;;;;;5.14;96.12;101865.16;5004983;28;20039;-76
2022/02/10 01:12:09;;;;;;;16.90;8.40;;;;;;;5.03;95.89;101858.13;5001156;28;20029;-76
2022/02/10 01:30:31;;;;;;;23.48;10.18;;;;;;;4.74;96.46;101835.00;5010407;28;20044;-75
2022/02/10 01:33:00;;;;;;;18.58;9.40;;;;;;;4.68;96.31;101832.78;5024178;28;20037;-75
2022/02/10 01:35:27;;;;;;;20.02;8.98;;;;;;;4.63;95.57;101825.38;5017710;28;20482;-75
2022/02/10 01:37:52;;;;;;;23.45;9.05;;;;;;;4.57;95.91;101824.91;5006326;28;20083;-76
2022/02/10 02:04:48;;;;;;;31.13;12.52;;;;;;;4.53;97.94;101797.75;5020934;28;20368;-75
2022/02/10 02:07:14;;;;;;;30.02;12.43;;;;;;;4.53;98.41;101798.56;5021908;28;20080;-75
2022/02/10 02:09:39;;;;;;;30.75;13.93;;;;;;;4.55;98.93;101795.91;5003838;28;20052;-75
2022/02/10 02:12:06;;;;;;;26.58;14.02;;;;;;;4.61;99.02;101791.22;4998261;28;20065;-75
2022/02/10 02:14:32;;;;;;;32.28;14.88;;;;;;;4.63;99.18;101784.28;5022798;28;20347;-76
2022/02/10 02:17:02;;;;;;;33.80;14.95;;;;;;;4.65;99.07;101779.84;5004936;28;20108;-75
2022/02/10 02:19:29;;;;;;;30.35;14.95;;;;;;;4.68;99.06;101777.09;5020120;28;20079;-75
2022/02/10 02:22:07;;;;;;;34.00;15.75;;;;;;;4.72;99.68;101779.47;5006259;28;20381;-75
2022/02/10 02:24:34;;;;;;;32.08;16.77;;;;;;;4.76;99.82;101775.78;5003238;28;20041;-75
2022/02/10 02:27:03;;;;;;;42.20;18.10;;;;;;;4.74;99.92;101772.50;5007252;28;20049;-76
2022/02/10 02:32:06;;;;;;;38.33;17.98;;;;;;;4.78;99.64;101763.69;5007336;28;20029;-76
2022/02/10 03:06:39;;;;;;;38.33;15.40;;;;;;;4.81;96.87;101694.09;5006567;28;20045;-76
2022/02/10 03:09:12;;;;;;;30.75;13.70;;;;;;;4.70;96.65;101699.09;5023030;28;20482;-76
2022/02/10 03:11:40;;;;;;;25.25;14.90;;;;;;;4.62;96.32;101692.69;4999411;28;20045;-75
2022/02/10 03:14:10;;;;;;;33.47;14.02;;;;;;;4.60;96.90;101671.41;5021069;28;20534;-76
2022/02/10 04:03:10;;;;;;;19.08;9.95;;;;;;;3.84;97.64;101640.94;5021704;28;20156;-75
2022/02/10 04:16:27;;;;;;;25.67;10.85;;;;;;;3.68;97.33;101670.09;5004044;28;20121;-75
2022/02/10 04:21:40;;;;;;;23.88;11.07;;;;;;;3.59;97.05;101672.38;5022788;28;20033;-75
2022/02/10 04:27:02;;;;;;;24.77;10.45;;;;;;;3.50;96.19;101682.25;5022853;28;20129;-75
2022/02/10 04:30:08;;;;;;;22.25;9.85;;;;;;;3.46;96.09;101679.94;4987818;28;20029;-76
2022/02/10 05:24:46;;;;;;;29.08;10.45;;;;;;;3.86;100.00;101639.97;5002340;28;20196;-76
2022/02/10 05:35:31;;;;;;;20.38;9.00;;;;;;;4.03;100.00;101649.22;5017135;28;20069;-76
2022/02/10 05:38:11;;;;;;;21.23;9.90;;;;;;;4.05;99.58;101641.41;5020671;28;20510;-76
2022/02/10 06:02:52;;;;;;;40.05;14.82;;;;;;;4.38;98.00;101622.28;5025982;28;20045;-75
2022/02/10 06:39:34;;;;;;;25.33;9.43;;;;;;;4.90;95.05;101642.13;5022820;28;20128;-75
2022/02/10 06:51:52;;;;;;;31.38;11.57;;;;;;;4.80;95.43;101641.03;5022440;28;20081;-75
2022/02/10 06:54:44;;;;;;;25.73;12.15;;;;;;;4.90;95.33;101641.28;5004821;28;20052;-76
2022/02/10 06:58:05;;;;;;;36.38;15.93;;;;;;;4.82;95.17;101641.78;4987428;28;20044;-76
2022/02/10 07:44:28;;;;;;;32.78;11.93;;;;;;;5.09;95.52;101680.31;5007406;28;20025;-74
2022/02/10 07:54:14;;;;;;;33.30;12.65;;;;;;;5.16;94.98;101686.72;5005327;28;20025;-76
2022/02/10 08:53:02;;;;;;;34.65;13.48;;;;;;;5.60;95.13;101703.56;5008368;28;20037;-75
2022/02/10 08:57:28;;;;;;;31.33;14.40;;;;;;;5.85;94.81;101696.78;5010692;28;20033;-76
2022/02/10 09:03:12;;;;;;;29.13;13.60;;;;;;;5.94;93.66;101709.03;5010561;28;20148;-76
2022/02/10 09:05:53;;;;;;;28.92;13.00;;;;;;;5.84;94.21;101698.53;5008253;28;20445;-77
2022/02/10 10:01:58;;;;;;;20.17;10.48;;;;;;;6.22;98.21;101738.09;5024463;28;20034;-77
2022/02/10 10:04:32;;;;;;;23.10;12.18;;;;;;;6.27;98.20;101735.19;4992482;28;20491;-77
2022/02/10 10:07:23;;;;;;;22.90;11.52;;;;;;;6.35;98.46;101740.66;5002524;28;20422;-76
2022/02/10 10:10:25;;;;;;;26.17;11.55;;;;;;;6.34;98.42;101747.56;5008186;28;20037;-76
2022/02/10 10:16:30;;;;;;;24.25;11.38;;;;;;;6.37;98.39;101760.22;4991684;28;20037;-75
2022/02/10 10:22:01;;;;;;;23.55;11.65;;;;;;;6.22;99.38;101763.84;4986762;28;20104;-76
2022/02/10 10:24:43;;;;;;;22.38;10.52;;;;;;;6.33;99.38;101765.69;5007434;28;20096;-76
2022/02/10 10:27:30;;;;;;;23.40;11.00;;;;;;;6.25;99.36;101773.94;5008109;28;20521;-77
2022/02/10 10:54:19;;;;;;;22.58;10.88;;;;;;;6.31;100.00;101785.56;5016174;28;20044;-78
2022/02/10 10:56:48;;;;;;;21.95;10.38;;;;;;;6.37;100.00;101787.75;5032385;28;21723;-77
2022/02/10 11:38:20;;;;;;;27.92;13.05;;;;;;;6.38;100.00;101777.31;5030337;28;20046;-78
2022/02/10 11:44:05;;;;;;;28.55;12.80;;;;;;;6.37;100.00;101785.19;5010914;28;20037;-78
2022/02/10 12:29:43;;;;;;;26.35;13.35;;;;;;;6.51;100.00;101791.97;5016724;28;20030;-78
2022/02/10 12:42:14;;;;;;;21.50;11.93;;;;;;;6.60;100.00;101794.72;5018550;28;20041;-78
2022/02/10 13:23:24;;;;;;;20.10;10.25;;;;;;;6.74;100.00;101774.91;5004480;28;20037;-77
2022/02/10 13:30:25;;;;;;;17.08;8.32;;;;;;;6.73;100.00;101786.97;5024437;28;20280;-78
2022/02/10 13:48:53;;;;;;;15.30;6.63;;;;;;;6.91;100.00;101781.44;5008479;28;20285;-77
2022/02/10 14:13:12;;;;;;;9.63;5.82;;;;;;;7.53;99.10;101758.03;5009327;28;20072;-77
2022/02/10 14:15:57;;;;;;;13.27;6.88;;;;;;;7.58;97.78;101761.13;5013031;28;20137;-76
2022/02/10 14:18:26;;;;;;;16.52;7.18;;;;;;;7.56;97.35;101769.91;5013548;28;20038;-76
2022/02/10 14:21:00;;;;;;;14.43;7.43;;;;;;;7.51;97.04;101784.91;5030277;28;20045;-77
2022/02/10 14:28:21;;;;;;;16.63;8.77;;;;;;;7.72;95.08;101778.19;5035941;28;20093;-76
2022/02/10 14:30:50;;;;;;;15.23;8.75;;;;;;;7.70;94.51;101782.63;5012934;28;20033;-77
2022/02/10 14:33:22;;;;;;;15.35;8.35;;;;;;;7.72;94.42;101777.34;5013539;28;20040;-77
2022/02/10 14:38:35;;;;;;;18.98;9.80;;;;;;;7.74;93.42;101796.13;5029595;28;20037;-77
2022/02/10 15:53:10;;;;;;;18.27;10.18;;;;;;;7.04;94.90;101820.09;4993247;28;20037;-76
2022/02/10 15:56:02;;;;;;;17.27;9.50;;;;;;;7.00;94.87;101816.91;5006477;28;20338;-77
2022/02/10 16:17:06;;;;;;;17.92;6.88;;;;;;;6.93;90.00;101819.09;5008386;28;20026;-77
2022/02/10 16:19:33;;;;;;;14.48;6.97;;;;;;;6.77;90.05;101814.19;5003665;28;20406;-77
2022/02/10 16:22:11;;;;;;;16.45;6.65;;;;;;;6.65;90.84;101822.78;5026133;28;20042;-76
2022/02/10 16:24:48;;;;;;;10.90;6.03;;;;;;;6.63;90.63;101816.91;5007628;28;20045;-77
2022/02/10 16:27:23;;;;;;;15.23;5.68;;;;;;;6.49;91.65;101820.41;5027799;28;20339;-77
2022/02/10 16:29:52;;;;;;;16.13;6.53;;;;;;;6.47;91.91;101822.25;5006358;28;20033;-77
2022/02/10 16:32:18;;;;;;;14.55;6.40;;;;;;;6.44;92.65;101817.31;5026387;28;20033;-76
2022/02/10 16:34:43;;;;;;;20.40;7.68;;;;;;;6.39;93.28;101815.06;5007304;28;20041;-77
2022/02/10 16:37:11;;;;;;;20.42;7.28;;;;;;;6.37;93.56;101811.75;5029734;28;20786;-77
2022/02/10 16:39:38;;;;;;;12.13;6.20;;;;;;;6.38;93.92;101812.56;5005222;28;20752;-77
2022/02/10 16:42:07;;;;;;;15.27;6.90;;;;;;;6.48;93.26;101818.78;4996545;28;20033;-77
2022/02/10 16:44:33;;;;;;;11.63;6.32;;;;;;;6.45;92.70;101815.56;5006262;28;20033;-80
2022/02/10 16:47:00;;;;;;;20.95;6.75;;;;;;;6.43;92.77;101813.91;5002131;28;20037;-77
2022/02/10 16:49:27;;;;;;;17.90;6.38;;;;;;;6.39;92.88;101824.53;4982412;28;20514;-78
2022/02/10 16:51:54;;;;;;;20.60;8.25;;;;;;;6.36;92.66;101825.56;5025918;28;20309;-78
2022/02/10 16:54:34;;;;;;;23.25;9.75;;;;;;;6.26;93.69;101827.13;5003268;28;20033;-77
2022/02/10 16:57:17;;;;;;;20.80;9.43;;;;;;;6.30;94.03;101825.16;5005528;28;20523;-77
2022/02/10 17:02:31;;;;;;;88.78;41.47;;;;;;;6.31;92.29;101827.63;5017486;28;20543;-78
2022/02/10 17:05:05;;;;;;;64.40;41.25;;;;;;;6.15;93.16;101814.13;5013925;28;20033;-78
2022/02/10 17:29:07;;;;;;;13.23;5.93;;;;;;;5.90;94.51;101800.28;5008577;28;20463;-77
2022/02/10 17:31:48;;;;;;;12.48;6.18;;;;;;;5.90;94.47;101808.00;5004251;28;20069;-77
2022/02/10 17:34:25;;;;;;;13.45;5.57;;;;;;;5.91;94.79;101807.06;5002968;28;20148;-76
2022/02/10 17:37:17;;;;;;;14.80;5.47;;;;;;;5.91;95.09;101812.22;4989455;28;20444;-77
2022/02/10 17:53:14;;;;;;;17.70;6.50;;;;;;;5.77;95.71;101825.16;5025803;28;20040;-76
2022/02/10 17:55:39;;;;;;;12.32;5.70;;;;;;;5.75;95.56;101827.03;5025432;28;20042;-76
2022/02/10 17:58:04;;;;;;;16.55;6.18;;;;;;;5.75;95.72;101816.72;4993565;28;20083;-77
2022/02/10 18:00:30;;;;;;;17.80;6.45;;;;;;;5.74;95.75;101817.63;5006503;28;20041;-76
2022/02/10 18:02:59;;;;;;;15.18;6.63;;;;;;;5.73;95.97;101827.13;5010828;28;20048;-76
2022/02/10 18:08:14;;;;;;;24.42;7.32;;;;;;;5.94;94.19;101835.19;4980029;28;20134;-76
2022/02/10 18:15:42;;;;;;;19.45;5.95;;;;;;;5.80;92.38;101843.81;5005807;28;20107;-76
2022/02/10 18:18:19;;;;;;;18.95;6.13;;;;;;;5.67;93.01;101848.09;5027591;28;20059;-77
2022/02/10 18:20:51;;;;;;;18.33;5.88;;;;;;;5.66;92.33;101849.00;5026197;28;20416;-76
2022/02/10 18:23:23;;;;;;;20.77;6.35;;;;;;;5.65;92.69;101848.19;5008129;28;20104;-76
2022/02/10 18:28:26;;;;;;;23.20;6.43;;;;;;;5.62;93.18;101856.09;5028153;28;20037;-76
2022/02/10 19:11:09;;;;;;;4.20;1.50;;;;;;;4.46;91.75;101900.88;5006157;28;20427;-78
2022/02/10 19:13:35;;;;;;;2.97;2.28;;;;;;;4.47;92.61;101907.66;4987995;28;20049;-77
2022/02/10 19:16:00;;;;;;;9.82;2.05;;;;;;;4.50;92.94;101901.50;5028857;28;20402;-77
2022/02/10 19:18:26;;;;;;;5.40;1.70;;;;;;;4.61;93.19;101896.56;4988797;28;20038;-77
2022/02/10 19:20:51;;;;;;;7.88;1.75;;;;;;;4.51;92.78;101904.91;5003112;28;20462;-78
2022/02/10 19:23:17;;;;;;;4.95;1.50;;;;;;;4.71;90.90;101912.28;5007651;28;20455;-78
2022/02/10 19:25:42;;;;;;;6.00;1.90;;;;;;;4.61;90.64;101916.28;5007217;28;20170;-78
2022/02/10 19:28:11;;;;;;;5.65;1.60;;;;;;;4.61;90.30;101911.16;5008396;28;20025;-78
2022/02/10 19:30:39;;;;;;;8.13;2.00;;;;;;;4.56;90.40;101928.56;5005278;28;20617;-78
2022/02/10 19:33:10;;;;;;;8.07;1.60;;;;;;;4.62;90.80;101925.66;4996203;28;20441;-78
2022/02/10 19:35:42;;;;;;;11.32;2.15;;;;;;;4.48;90.20;101929.88;4987885;28;20030;-78
2022/02/10 19:38:09;;;;;;;;;;;;;;;4.43;90.51;101931.84;5007005;28;20041;-80
2022/02/10 19:40:38;;;;;;;8.20;1.85;;;;;;;4.40;90.19;101923.50;4992644;28;19917;-79
2022/02/10 19:43:05;;;;;;;7.22;2.10;;;;;;;4.38;90.58;101928.72;5006480;28;20043;-78
2022/02/10 19:45:31;;;;;;;7.07;1.85;;;;;;;4.32;91.39;101936.78;4988117;28;20591;-79
2022/02/10 19:47:56;;;;;;;10.68;2.05;;;;;;;4.24;91.39;101941.53;5004942;28;20160;-78
2022/02/10 19:50:27;;;;;;;4.50;1.60;;;;;;;4.22;91.73;101939.06;4992151;28;20052;-79
2022/02/10 19:52:54;;;;;;;8.60;1.70;;;;;;;4.26;91.96;101940.53;5002882;28;20034;-78
2022/02/10 19:55:23;;;;;;;5.68;2.35;;;;;;;4.21;92.84;101947.66;5005355;28;20054;-78
2022/02/10 19:57:56;;;;;;;7.40;2.00;;;;;;;4.23;92.83;101945.00;5006774;28;20261;-78
2022/02/10 20:00:26;;;;;;;5.18;2.00;;;;;;;4.14;91.95;101955.78;5024663;28;20041;-78
2022/02/10 20:02:53;;;;;;;4.10;1.40;;;;;;;4.14;91.73;101956.59;5031836;28;20059;-79
2022/02/10 20:05:24;;;;;;;5.22;1.65;;;;;;;4.20;90.47;101958.84;5031755;28;20080;-78
2022/02/10 20:07:54;;;;;;;4.80;1.45;;;;;;;4.14;91.44;101960.94;4997859;28;20036;-79
2022/02/10 20:10:20;;;;;;;4.32;1.48;;;;;;;4.10;92.06;101958.53;4991662;28;20041;-78
2022/02/10 20:12:46;;;;;;;4.30;1.38;;;;;;;3.94;91.68;101957.75;5004403;28;20041;-78
2022/02/10 20:15:13;;;;;;;7.53;1.50;;;;;;;4.00;90.98;101957.38;5002810;28;20120;-80
2022/02/10 20:17:39;;;;;;;5.28;1.15;;;;;;;3.97;90.98;101969.56;5005774;28;20140;-79
2022/02/10 20:20:05;;;;;;;4.95;1.40;;;;;;;3.84;91.61;101975.38;5023174;28;20040;-80
2022/02/10 20:22:35;;;;;;;4.20;1.40;;;;;;;3.78;92.29;101980.00;5005530;28;20041;-79
2022/02/10 20:25:03;;;;;;;4.75;2.35;;;;;;;3.80;92.86;101973.88;5004074;28;20029;-79
2022/02/10 20:27:28;;;;;;;4.60;1.30;;;;;;;3.78;93.21;101973.13;5005313;28;20112;-78
2022/02/10 20:29:54;;;;;;;6.10;1.23;;;;;;;3.77;93.06;101970.63;5017303;28;20172;-77
2022/02/10 20:32:20;;;;;;;7.57;1.27;;;;;;;3.73;92.85;101970.00;4989831;28;20037;-78
2022/02/10 20:34:45;;;;;;;1.90;1.10;;;;;;;3.79;93.31;101969.66;5002196;28;20338;-78
2022/02/10 20:37:12;;;;;;;4.00;1.10;;;;;;;3.74;93.66;101970.81;5003107;28;20033;-78
2022/02/10 20:39:37;;;;;;;3.97;1.35;;;;;;;3.62;93.64;101973.13;5003647;28;20026;-78
2022/02/10 20:42:07;;;;;;;2.65;0.95;;;;;;;3.68;93.09;101970.22;5006782;28;20574;-78
2022/02/10 20:44:33;;;;;;;2.45;0.90;;;;;;;3.64;93.11;101962.81;5004387;28;20041;-78
2022/02/10 20:46:59;;;;;;;3.85;1.52;;;;;;;3.63;93.63;101968.81;4989966;28;20026;-77
2022/02/10 20:49:27;;;;;;;3.78;0.93;;;;;;;3.62;93.64;101968.00;5029884;28;20037;-78
2022/02/10 20:51:55;;;;;;;3.85;0.82;;;;;;;3.61;93.49;101966.34;5006616;28;20018;-77
2022/02/10 20:54:21;;;;;;;3.08;0.95;;;;;;;3.58;94.04;101968.25;5005603;28;20037;-78
2022/02/10 20:56:47;;;;;;;6.85;0.90;;;;;;;3.59;93.91;101969.91;4989936;28;20129;-77
2022/02/10 21:01:47;;;;;;;4.43;1.00;;;;;;;3.51;94.26;101967.75;5009992;28;20037;-78
2022/02/10 21:04:13;;;;;;;4.82;1.00;;;;;;;3.58;94.53;101963.09;5005001;28;20399;-76
2022/02/10 21:09:18;;;;;;;1.88;0.98;;;;;;;3.49;94.52;101965.25;5003105;28;20033;-77
2022/02/10 21:11:44;;;;;;;5.75;0.80;;;;;;;3.49;94.97;101965.25;5006371;28;20037;-78
2022/02/10 21:14:17;;;;;;;4.32;1.30;;;;;;;3.48;94.77;101966.19;5003340;28;20095;-77
2022/02/10 21:16:43;;;;;;;1.35;0.60;;;;;;;3.48;94.63;101968.75;5021629;28;20528;-76
2022/02/10 21:19:11;;;;;;;2.10;1.00;;;;;;;3.53;95.08;101963.38;4990630;28;20165;-76
2022/02/10 21:21:36;;;;;;;6.07;1.10;;;;;;;3.49;94.92;101967.81;4988717;28;20084;-77
2022/02/10 21:24:08;;;;;;;2.95;1.02;;;;;;;3.46;95.21;101964.59;5023510;28;20495;-78
2022/02/10 21:26:43;;;;;;;7.73;1.10;;;;;;;3.40;95.14;101967.50;5019744;28;20037;-77
2022/02/10 21:29:08;;;;;;;6.15;0.95;;;;;;;3.42;95.22;101976.75;5004260;28;20857;-77
2022/02/10 21:31:42;;;;;;;2.13;0.85;;;;;;;3.43;95.35;101969.91;5022985;28;20033;-76
2022/02/10 21:34:14;;;;;;;3.13;0.93;;;;;;;3.41;95.68;101969.97;4995736;28;20053;-76
2022/02/10 21:36:56;;;;;;;9.15;1.20;;;;;;;3.40;95.28;101968.31;5005894;28;20051;-77
2022/02/10 21:57:56;;;;;;;7.30;1.60;;;;;;;3.39;94.92;101983.78;5001471;28;20029;-76
2022/02/10 22:11:03;;;;;;;6.35;1.73;;;;;;;3.26;95.78;101984.44;5003911;28;20041;-77
2022/02/10 22:21:17;;;;;;;7.15;2.40;;;;;;;3.23;95.04;101978.63;5005649;28;20273;-77
2022/02/10 22:23:46;;;;;;;8.23;1.63;;;;;;;3.17;95.83;101982.34;4980176;28;20030;-77
2022/02/10 22:26:18;;;;;;;6.47;1.50;;;;;;;3.14;95.54;101972.22;4996056;28;20029;-77
2022/02/10 22:34:11;;;;;;;4.03;1.48;;;;;;;3.11;95.70;101975.78;5024580;28;20041;-75
2022/02/10 22:36:38;;;;;;;5.07;1.75;;;;;;;3.18;95.21;101978.84;5019901;28;20061;-76
2022/02/10 22:39:05;;;;;;;4.68;1.88;;;;;;;3.09;95.54;101979.34;5025604;28;20036;-76
2022/02/10 22:41:31;;;;;;;7.30;1.85;;;;;;;3.09;95.66;101977.59;5027245;28;20041;-76
2022/02/10 22:44:00;;;;;;;8.20;1.65;;;;;;;3.05;96.09;101965.84;4994475;28;20522;-76
2022/02/10 22:46:26;;;;;;;4.70;1.85;;;;;;;3.08;96.00;101970.00;5003847;28;20488;-76
2022/02/10 22:48:52;;;;;;;4.50;1.90;;;;;;;3.05;95.65;101965.00;4998248;28;20029;-76
2022/02/10 22:51:20;;;;;;;4.47;1.90;;;;;;;3.10;95.53;101968.16;5022893;28;20040;-76
2022/02/10 22:53:46;;;;;;;7.35;2.33;;;;;;;3.10;95.14;101970.72;5002414;28;20037;-76
2022/02/10 22:56:14;;;;;;;4.75;1.92;;;;;;;3.19;94.68;101974.56;5002776;28;20034;-75
2022/02/10 22:58:40;;;;;;;7.45;1.90;;;;;;;3.05;95.23;101970.13;4990313;28;20065;-75
2022/02/10 23:01:11;;;;;;;3.45;1.70;;;;;;;3.03;95.55;101966.81;5007359;28;20067;-75
2022/02/10 23:03:38;;;;;;;5.82;2.15;;;;;;;2.99;95.90;101970.44;5007162;28;20103;-75
2022/02/10 23:06:07;;;;;;;5.45;2.45;;;;;;;3.03;95.97;101975.38;5015102;28;20061;-76
2022/02/10 23:08:33;;;;;;;4.97;2.35;;;;;;;2.95;96.06;101968.97;5003930;28;20690;-76
2022/02/10 23:10:59;;;;;;;6.13;2.13;;;;;;;3.01;95.79;101974.59;5003486;28;20099;-76
2022/02/10 23:13:29;;;;;;;8.57;2.10;;;;;;;3.07;95.96;101981.13;5003220;28;20029;-76
2022/02/10 23:15:58;;;;;;;7.82;2.80;;;;;;;3.02;95.54;101986.50;4988819;28;20047;-76
2022/02/10 23:18:29;;;;;;;12.18;2.63;;;;;;;2.96;96.04;101979.13;5002278;28;20033;-76
2022/02/10 23:20:56;;;;;;;4.80;2.80;;;;;;;2.99;96.29;101976.41;5008503;28;20079;-76
2022/02/10 23:23:23;;;;;;;6.70;2.97;;;;;;;3.01;96.03;101978.88;5030650;28;20364;-76
2022/02/10 23:25:51;;;;;;;6.60;3.55;;;;;;;2.97;95.93;101978.22;5009392;28;20112;-76
2022/02/10 23:28:28;;;;;;;7.22;3.80;;;;;;;2.89;96.23;101976.03;4993194;28;20099;-75
2022/02/10 23:30:54;;;;;;;6.43;3.58;;;;;;;2.89;96.05;101976.03;5000156;28;20036;-76
2022/02/10 23:38:30;;;;;;;10.10;4.07;;;;;;;2.92;96.25;101986.16;5020398;28;20034;-75
2022/02/10 23:43:25;;;;;;;14.80;5.43;;;;;;;2.79;96.64;101979.13;5005315;28;20116;-76
2022/02/10 23:45:50;;;;;;;10.80;5.13;;;;;;;2.73;96.98;101985.38;4997217;28;20395;-76
2022/02/10 23:48:16;;;;;;;6.90;4.78;;;;;;;2.70;97.45;101988.13;5021486;28;20037;-75
2022/02/10 23:50:42;;;;;;;10.15;4.88;;;;;;;2.84;96.82;101982.31;5006349;28;20033;-75
2022/02/10 23:53:07;;;;;;;12.07;5.57;;;;;;;2.89;96.07;101976.03;5022264;28;20043;-75
2022/02/10 23:55:37;;;;;;;10.00;4.55;;;;;;;2.77;95.98;101979.22;5023731;28;20050;-76
